Board Camp, AR

3:20 AM CDT en Octubre 31, 2014 (GMT -0500)
Mena | Change Station
CLOSE
Current Station
Aeropuerto
Location: Mena,
Altura: 1079 ft
Estaciones meteorológicas cercanas

Alt 1079 ft 34.55 °N, 94.20 °W | Updated 5 minutes ago

Despejado
Despejado
55 ° F
Sensación térmica 55 ° F
N
0
Viento Variable Viento desde Norte

Hoy
Alta -- | Baja -- ° F
--% Posibilidad de precipitaciones
Ayer
Alta -- | Baja -- ° F
Precip. -- pul
7:36 AM 6:24 PM
Cuarto creciente, 53% visible
Presión 30.13 pul
Visibilidad 10.0 Millas
Nubes Despejado
Punto de rocío 41 ° F
Humedad 58%
Precipitaciones 0.00 pul
Espesor de la nieve No disponible.
UV 0 de una escala de 12
Polen 4.10 de una escala de 12
Calidad del aire No disponible.
Flu Activity No disponible.
METAR KMEZ 310815Z AUTO 00000KT 10SM CLR 13/05 A3013 RMK AO2

More Conditions Fewer Conditions

Presión 30.13 pul
Visibilidad 10.0 Millas
Nubes Despejado
Punto de rocío 41 ° F
Humedad 58%
Precipitaciones 0.00 pul
Espesor de la nieve No disponible.
UV 0 de una escala de 12
Polen 4.10 de una escala de 12
Calidad del aire No disponible.
Flu Activity No disponible.
METAR KMEZ 310815Z AUTO 00000KT 10SM CLR 13/05 A3013 RMK AO2

More Conditions Fewer Conditions

10-Day Weather Forecast

Almanac

Astronomía

Oct. 31, 2014 Salida Puesta
Hora real
Crepúsculo civil
Crepúsculo náutico
Crepúsculo astronómico
Luna
Horas de luz
Horas de luz
Tomorrow will be .
, % of the Moon is Illuminated

Extremos de hoy

Máximos del estado Bajos del estado

Community

WunderPhotos

Upload Photos

1,766,573 ¡fotos cargadas!

WunderBlogs® & News

Nearby

Calidad del aire

  Calidad del aire Índice AQ Contaminante
Not available.

Grosos de nieve

Estación Profundido Altura

Actividad de terremotos

Ciudad Distance Mag. Tiempo y dato
Magnitud mínima muestra es 2,5.

Temperaturas de aguas costeras

Lugar Temperatura

Estaciones meteorológicas cercanas